createdAt,value
2024-03-06T00:00:12.835Z,101559.94
2024-03-06T00:02:42.921Z,101553.72
2024-03-06T00:05:10.229Z,101564.28
2024-03-06T00:07:37.569Z,101562.38
2024-03-06T00:10:05.669Z,101563.44
2024-03-06T00:12:35.863Z,101572.13
2024-03-06T00:15:03.777Z,101569.81
2024-03-06T00:17:36.836Z,101578.16
2024-03-06T00:20:05.911Z,101575.00
2024-03-06T00:22:32.913Z,101574.69
2024-03-06T00:25:03.476Z,101577.09
2024-03-06T00:27:30.436Z,101578.75
2024-03-06T00:30:01.569Z,101572.13
2024-03-06T00:32:29.205Z,101582.50
2024-03-06T00:34:56.419Z,101582.03
2024-03-06T00:37:26.248Z,101589.47
2024-03-06T00:39:53.206Z,101586.78
2024-03-06T00:42:23.274Z,101586.41
2024-03-06T00:44:53.389Z,101589.69
2024-03-06T00:47:23.316Z,101599.16
2024-03-06T00:49:53.334Z,101590.53
2024-03-06T00:52:20.284Z,101598.38
2024-03-06T00:54:50.307Z,101597.66
2024-03-06T00:57:23.303Z,101598.53
2024-03-06T00:59:50.280Z,101606.34
2024-03-06T01:02:23.845Z,101609.19
2024-03-06T01:04:57.043Z,101615.50
2024-03-06T01:07:26.956Z,101614.00
2024-03-06T01:09:57.767Z,101621.66
2024-03-06T01:12:24.704Z,101628.69
2024-03-06T01:14:57.535Z,101629.41
2024-03-06T01:17:30.779Z,101625.84
2024-03-06T01:20:01.994Z,101627.13
2024-03-06T01:22:28.951Z,101623.91
2024-03-06T01:24:59.958Z,101625.50
2024-03-06T01:27:32.763Z,101634.31
2024-03-06T01:30:02.113Z,101638.22
2024-03-06T01:32:33.932Z,101639.34
2024-03-06T01:35:16.127Z,101643.69
2024-03-06T01:37:49.366Z,101641.00
2024-03-06T01:40:19.476Z,101643.84
2024-03-06T01:42:49.356Z,101640.19
2024-03-06T01:45:25.505Z,101642.66
2024-03-06T01:47:53.168Z,101649.72
2024-03-06T01:50:23.208Z,101648.44
2024-03-06T01:52:53.095Z,101642.59
2024-03-06T01:55:23.069Z,101644.25
2024-03-06T01:57:53.387Z,101650.06
2024-03-06T02:00:21.382Z,101636.22
2024-03-06T02:02:54.861Z,101642.09
2024-03-06T02:05:22.427Z,101637.72
2024-03-06T02:07:54.440Z,101642.47
2024-03-06T02:10:24.336Z,101644.88
2024-03-06T02:12:58.388Z,101643.75
2024-03-06T02:15:28.558Z,101645.81
2024-03-06T02:18:05.437Z,101650.47
2024-03-06T02:20:34.646Z,101643.75
2024-03-06T02:23:01.708Z,101645.81
2024-03-06T02:25:28.775Z,101644.75
2024-03-06T02:28:01.678Z,101646.63
2024-03-06T02:30:30.836Z,101651.03
2024-03-06T02:33:04.594Z,101639.97
2024-03-06T02:35:32.965Z,101637.69
2024-03-06T02:38:05.277Z,101640.41
2024-03-06T02:40:32.289Z,101641.66
2024-03-06T02:43:07.976Z,101649.59
2024-03-06T02:45:34.935Z,101642.81
2024-03-06T02:48:03.548Z,101638.09
2024-03-06T02:50:30.476Z,101642.44
2024-03-06T02:53:00.446Z,101646.00
2024-03-06T02:55:35.990Z,101644.94
2024-03-06T02:58:03.392Z,101647.34
2024-03-06T03:00:31.876Z,101648.91
2024-03-06T03:03:04.092Z,101650.03
2024-03-06T03:05:34.084Z,101649.25
2024-03-06T03:08:07.532Z,101646.91
2024-03-06T03:10:34.979Z,101649.78
2024-03-06T03:13:05.363Z,101647.75
2024-03-06T03:15:35.348Z,101652.88
2024-03-06T03:18:02.361Z,101656.91
2024-03-06T03:20:31.296Z,101655.84
2024-03-06T03:23:01.407Z,101656.66
2024-03-06T03:25:31.603Z,101658.97
2024-03-06T03:27:59.384Z,101650.28
2024-03-06T03:30:38.083Z,101662.63
2024-03-06T03:33:11.123Z,101655.84
2024-03-06T03:35:41.320Z,101659.44
2024-03-06T03:38:08.331Z,101662.19
2024-03-06T03:40:53.689Z,101663.78
2024-03-06T03:43:29.610Z,101671.72
2024-03-06T03:45:56.845Z,101669.81
2024-03-06T03:48:24.028Z,101676.91
2024-03-06T03:50:51.284Z,101675.41
2024-03-06T03:53:18.756Z,101680.13
2024-03-06T03:55:48.874Z,101686.22
2024-03-06T03:58:16.778Z,101683.41
2024-03-06T04:00:44.648Z,101687.63
2024-03-06T04:03:11.874Z,101680.13
2024-03-06T04:05:42.013Z,101684.84
2024-03-06T04:08:12.079Z,101691.59
2024-03-06T04:10:45.477Z,101692.53
2024-03-06T04:13:12.912Z,101696.09
2024-03-06T04:15:43.642Z,101696.53
2024-03-06T04:18:13.842Z,101700.44
2024-03-06T04:20:41.068Z,101702.41
2024-03-06T04:23:08.266Z,101703.97
2024-03-06T04:25:41.706Z,101703.97
2024-03-06T04:28:08.980Z,101701.63
2024-03-06T04:30:36.203Z,101709.13
2024-03-06T04:33:04.886Z,101710.72
2024-03-06T04:35:41.361Z,101717.44
2024-03-06T04:38:11.604Z,101722.63
2024-03-06T04:40:41.994Z,101715.97
2024-03-06T04:43:13.676Z,101726.59
2024-03-06T04:45:40.900Z,101730.16
2024-03-06T04:48:11.551Z,101737.75
2024-03-06T04:50:45.367Z,101738.09
2024-03-06T04:53:12.734Z,101741.34
2024-03-06T04:55:39.981Z,101747.28
2024-03-06T04:58:10.457Z,101752.81
2024-03-06T05:00:43.470Z,101749.38
2024-03-06T05:59:12.760Z,101817.19
2024-03-06T06:01:40.098Z,101825.09
2024-03-06T06:04:10.516Z,101818.78
2024-03-06T06:06:38.017Z,101823.53
2024-03-06T06:09:06.004Z,101823.94
2024-03-06T06:11:36.402Z,101825.53
2024-03-06T06:14:06.713Z,101823.97
2024-03-06T06:16:38.158Z,101833.09
2024-03-06T06:19:06.000Z,101829.09
2024-03-06T06:21:36.417Z,101840.16
2024-03-06T06:24:08.480Z,101838.59
2024-03-06T06:26:38.166Z,101843.78
2024-03-06T06:29:08.643Z,101856.72
2024-03-06T06:31:44.929Z,101860.66
2024-03-06T06:34:12.179Z,101861.06
2024-03-06T06:36:41.336Z,101867.84
2024-03-06T06:39:12.783Z,101862.25
2024-03-06T06:41:40.657Z,101878.06
2024-03-06T06:44:07.644Z,101879.72
2024-03-06T06:46:34.621Z,101881.25
2024-03-06T06:49:07.351Z,101873.34
2024-03-06T06:51:34.257Z,101876.44
2024-03-06T06:54:01.298Z,101882.31
2024-03-06T06:56:33.062Z,101883.16
2024-03-06T06:59:03.157Z,101885.16
2024-03-06T07:01:33.625Z,101895.00
2024-03-06T07:04:00.583Z,101894.56
2024-03-06T07:06:33.323Z,101897.66
2024-03-06T07:09:00.188Z,101890.66
2024-03-06T07:11:27.200Z,101895.84
2024-03-06T07:13:57.614Z,101908.84
2024-03-06T07:16:26.782Z,101902.91
2024-03-06T07:19:05.830Z,101916.72
2024-03-06T07:21:32.733Z,101911.19
2024-03-06T07:24:00.684Z,101918.19
2024-03-06T07:26:30.890Z,101914.13
2024-03-06T07:28:59.407Z,101916.41
2024-03-06T07:31:26.628Z,101922.31
2024-03-06T07:33:59.715Z,101923.41
2024-03-06T07:36:32.759Z,101924.72
2024-03-06T07:38:59.650Z,101929.38
2024-03-06T07:41:26.591Z,101926.22
2024-03-06T07:43:56.373Z,101927.56
2024-03-06T07:46:41.351Z,101932.66
2024-03-06T07:49:10.672Z,101932.34
2024-03-06T07:51:46.905Z,101938.22
2024-03-06T07:54:19.785Z,101943.75
2024-03-06T07:56:57.349Z,101946.09
2024-03-06T07:59:24.331Z,101937.00
2024-03-06T08:01:52.887Z,101947.34
2024-03-06T08:04:19.805Z,101952.69
2024-03-06T08:06:47.130Z,101951.91
2024-03-06T08:09:14.504Z,101954.22
2024-03-06T08:11:49.595Z,101950.53
2024-03-06T08:14:22.167Z,101963.00
2024-03-06T08:16:53.596Z,101969.59
2024-03-06T08:19:27.042Z,101968.53
2024-03-06T08:21:53.985Z,101974.47
2024-03-06T08:24:24.555Z,101983.72
2024-03-06T08:26:51.575Z,101974.53
2024-03-06T08:29:28.046Z,101982.91
2024-03-06T08:31:58.476Z,101988.66
2024-03-06T08:34:26.147Z,101985.75
2024-03-06T08:36:58.628Z,101993.75
2024-03-06T08:39:25.555Z,101993.75
2024-03-06T08:42:12.788Z,101999.31
2024-03-06T08:44:39.767Z,102000.91
2024-03-06T08:47:10.122Z,102002.25
2024-03-06T08:49:40.539Z,102005.41
2024-03-06T08:52:09.400Z,102012.31
2024-03-06T08:54:41.955Z,102019.09
2024-03-06T08:57:09.214Z,102019.50
2024-03-06T08:59:36.250Z,102024.16
2024-03-06T09:02:15.046Z,102028.94
2024-03-06T09:04:43.019Z,102024.97
2024-03-06T09:07:14.577Z,102024.22
2024-03-06T09:09:44.491Z,102019.31
2024-03-06T09:12:12.094Z,102030.75
2024-03-06T09:14:39.936Z,102029.94
2024-03-06T09:17:09.817Z,102031.47
2024-03-06T09:19:38.188Z,102038.66
2024-03-06T09:22:05.893Z,102034.41
2024-03-06T09:24:35.967Z,102034.31
2024-03-06T09:27:05.987Z,102036.56
2024-03-06T09:29:36.394Z,102048.59
2024-03-06T09:32:04.006Z,102043.44
2024-03-06T09:34:34.005Z,102049.25
2024-03-06T09:37:01.263Z,102049.38
2024-03-06T09:39:28.935Z,102050.91
2024-03-06T09:42:02.390Z,102054.63
2024-03-06T09:44:32.304Z,102050.94
2024-03-06T09:47:10.976Z,102059.19
2024-03-06T09:49:41.616Z,102058.81
2024-03-06T09:52:14.525Z,102064.38
2024-03-06T09:54:44.641Z,102069.91
2024-03-06T09:57:13.410Z,102064.91
2024-03-06T09:59:46.627Z,102070.53
2024-03-06T10:02:35.809Z,102066.97
2024-03-06T10:05:06.274Z,102066.56
2024-03-06T10:07:33.247Z,102069.22
2024-03-06T10:10:10.564Z,102076.44
2024-03-06T10:12:37.626Z,102079.94
2024-03-06T10:15:05.866Z,102080.66
2024-03-06T10:17:32.942Z,102077.69
2024-03-06T10:20:17.161Z,102084.88
2024-03-06T10:22:44.485Z,102081.22
2024-03-06T10:25:21.680Z,102089.69
2024-03-06T10:28:05.853Z,102077.50
2024-03-06T10:30:33.293Z,102081.03
2024-03-06T10:33:10.778Z,102079.19
2024-03-06T10:35:38.888Z,102086.31
2024-03-06T10:38:08.443Z,102092.59
2024-03-06T10:40:37.221Z,102082.50
2024-03-06T10:43:06.411Z,102087.88
2024-03-06T10:45:48.683Z,102092.44
2024-03-06T10:48:17.649Z,102093.56
2024-03-06T10:50:46.866Z,102095.03
2024-03-06T10:53:20.158Z,102100.22
2024-03-06T10:55:57.382Z,102092.00
2024-03-06T10:58:25.920Z,102096.75
2024-03-06T11:00:58.393Z,102095.91
2024-03-06T11:03:31.090Z,102099.72
2024-03-06T11:06:07.727Z,102098.03
2024-03-06T11:08:35.260Z,102091.63
2024-03-06T11:11:23.167Z,102098.63
2024-03-06T11:13:51.486Z,102095.84
2024-03-06T11:17:02.851Z,102097.06
2024-03-06T11:19:30.520Z,102093.19
2024-03-06T11:21:58.001Z,102101.66
2024-03-06T11:24:32.646Z,102095.47
2024-03-06T11:27:07.896Z,102091.47
2024-03-06T11:30:14.097Z,102087.63
2024-03-06T11:33:13.161Z,102099.19
2024-03-06T11:35:45.005Z,102093.31
2024-03-06T11:38:12.075Z,102095.97
2024-03-06T11:40:45.020Z,102099.09
2024-03-06T11:43:42.609Z,102090.78
2024-03-06T11:46:13.112Z,102098.84
2024-03-06T11:48:40.670Z,102106.44
2024-03-06T11:51:07.626Z,102093.00
2024-03-06T11:53:35.420Z,102099.16
2024-03-06T11:56:02.488Z,102101.03
2024-03-06T11:58:32.409Z,102099.81
2024-03-06T12:01:00.418Z,102097.78
2024-03-06T12:03:27.705Z,102098.38
2024-03-06T12:05:57.560Z,102099.69
2024-03-06T12:08:24.683Z,102096.81
2024-03-06T12:10:58.550Z,102100.91
2024-03-06T12:13:25.521Z,102099.28
2024-03-06T12:15:58.197Z,102096.50
2024-03-06T12:18:25.961Z,102101.00
2024-03-06T12:20:56.025Z,102097.84
2024-03-06T12:23:26.524Z,102104.50
2024-03-06T12:26:09.448Z,102102.50
2024-03-06T12:28:36.553Z,102098.72
2024-03-06T12:31:13.611Z,102101.66
2024-03-06T12:33:57.939Z,102093.97
2024-03-06T12:36:26.647Z,102094.88
2024-03-06T12:39:04.532Z,102093.72
2024-03-06T12:41:36.857Z,102092.16
2024-03-06T12:44:04.209Z,102084.69
2024-03-06T12:46:31.890Z,102088.84
2024-03-06T12:48:58.886Z,102095.06
2024-03-06T12:51:26.003Z,102087.44
2024-03-06T12:53:53.411Z,102090.66
2024-03-06T12:56:22.784Z,102088.38
2024-03-06T12:58:49.735Z,102089.47
2024-03-06T13:01:16.744Z,102088.00
2024-03-06T13:03:44.402Z,102082.28
2024-03-06T13:06:17.420Z,102086.09
2024-03-06T13:08:44.461Z,102077.63
2024-03-06T13:11:16.344Z,102080.53
2024-03-06T13:13:43.314Z,102080.03
2024-03-06T13:16:14.116Z,102083.41
2024-03-06T13:18:41.349Z,102085.56
2024-03-06T13:21:08.978Z,102081.13
2024-03-06T13:23:35.953Z,102083.47
2024-03-06T13:26:03.403Z,102076.53
2024-03-06T13:28:33.331Z,102080.84
2024-03-06T13:31:03.481Z,102079.53
2024-03-06T13:33:30.448Z,102089.38
2024-03-06T13:35:57.593Z,102076.88
2024-03-06T13:38:31.418Z,102077.84
2024-03-06T13:40:58.460Z,102081.41
2024-03-06T13:43:32.065Z,102072.13
2024-03-06T13:45:59.220Z,102084.00
2024-03-06T13:48:26.198Z,102074.34
2024-03-06T13:51:02.192Z,102080.53
2024-03-06T13:53:29.771Z,102080.16
2024-03-06T13:55:59.981Z,102080.09
2024-03-06T13:58:32.612Z,102079.22
2024-03-06T14:01:02.784Z,102082.94
2024-03-06T14:03:29.818Z,102086.53
2024-03-06T14:06:02.652Z,102090.28
2024-03-06T14:08:36.252Z,102079.41
2024-03-06T14:11:05.797Z,102079.66
2024-03-06T14:13:33.085Z,102085.38
2024-03-06T14:16:03.742Z,102083.53
2024-03-06T14:18:34.576Z,102084.91
2024-03-06T14:21:07.372Z,102082.69
2024-03-06T14:23:35.502Z,102087.19
2024-03-06T14:26:05.379Z,102083.47
2024-03-06T14:28:32.335Z,102090.97
2024-03-06T14:31:02.276Z,102081.56
2024-03-06T14:33:32.114Z,102094.75
2024-03-06T14:35:59.128Z,102094.97
2024-03-06T14:38:26.149Z,102105.59
2024-03-06T14:41:06.588Z,102100.69
2024-03-06T14:43:34.632Z,102101.44
2024-03-06T14:46:10.669Z,102100.31
2024-03-06T14:48:37.636Z,102103.16
2024-03-06T14:51:05.257Z,102104.59
2024-03-06T14:53:32.329Z,102103.13
2024-03-06T14:56:03.972Z,102097.25
2024-03-06T14:58:36.815Z,102101.50
2024-03-06T15:01:04.017Z,102103.47
2024-03-06T15:03:30.951Z,102103.25
2024-03-06T15:06:04.270Z,102113.84
2024-03-06T15:08:35.100Z,102103.41
2024-03-06T15:11:15.436Z,102098.31
2024-03-06T15:13:42.510Z,102104.94
2024-03-06T15:16:13.582Z,102103.66
2024-03-06T15:18:41.308Z,102105.69
2024-03-06T15:21:14.100Z,102106.81
2024-03-06T15:23:41.172Z,102105.28
2024-03-06T15:26:11.417Z,102105.22
2024-03-06T15:28:39.009Z,102108.50
2024-03-06T15:31:05.937Z,102113.13
2024-03-06T15:33:33.987Z,102109.16
2024-03-06T15:36:01.560Z,102109.75
2024-03-06T15:38:28.547Z,102115.91
2024-03-06T15:41:04.933Z,102118.25
2024-03-06T15:43:38.425Z,102112.94
2024-03-06T15:47:25.349Z,102118.59
2024-03-06T15:49:59.770Z,102113.50
2024-03-06T15:52:29.923Z,102124.38
2024-03-06T15:55:02.069Z,102123.88
2024-03-06T15:57:32.406Z,102127.34
2024-03-06T16:00:03.250Z,102125.34
2024-03-06T16:02:30.599Z,102118.91
2024-03-06T16:05:08.867Z,102124.91
2024-03-06T16:07:47.684Z,102123.94
2024-03-06T16:10:32.103Z,102125.63
2024-03-06T16:13:08.622Z,102125.69
2024-03-06T16:15:39.445Z,102128.63
2024-03-06T16:18:06.999Z,102127.22
2024-03-06T16:20:43.521Z,102133.94
2024-03-06T16:23:13.426Z,102131.00
2024-03-06T16:25:40.395Z,102139.63
2024-03-06T16:28:10.043Z,102139.44
2024-03-06T16:30:36.989Z,102136.91
2024-03-06T16:33:07.712Z,102129.28
2024-03-06T16:35:34.754Z,102144.63
2024-03-06T16:38:04.955Z,102147.19
2024-03-06T16:40:37.828Z,102138.22
2024-03-06T16:43:04.965Z,102147.59
2024-03-06T16:45:34.746Z,102153.19
2024-03-06T16:48:09.253Z,102149.69
2024-03-06T16:50:46.883Z,102155.44
2024-03-06T16:53:17.929Z,102158.94
2024-03-06T16:55:47.970Z,102156.53
2024-03-06T16:58:21.529Z,102157.66
2024-03-06T17:00:48.623Z,102157.41
2024-03-06T17:03:15.641Z,102155.13
2024-03-06T17:05:45.805Z,102159.88
2024-03-06T17:08:16.946Z,102165.31
2024-03-06T17:10:44.669Z,102170.34
2024-03-06T17:13:19.023Z,102171.25
2024-03-06T17:15:46.896Z,102173.88
2024-03-06T17:18:14.069Z,102175.53
2024-03-06T17:20:44.950Z,102175.34
2024-03-06T17:23:11.901Z,102185.69
2024-03-06T17:25:41.402Z,102184.44
2024-03-06T17:28:14.079Z,102191.66
2024-03-06T17:30:41.832Z,102183.25
2024-03-06T17:33:08.798Z,102191.91
2024-03-06T17:35:47.393Z,102194.19
2024-03-06T17:38:17.787Z,102188.34
2024-03-06T17:40:47.981Z,102196.69
2024-03-06T17:43:15.330Z,102199.66
2024-03-06T17:45:44.056Z,102205.34
2024-03-06T17:48:16.717Z,102207.16
2024-03-06T17:50:56.419Z,102208.47
2024-03-06T17:53:29.667Z,102212.34
2024-03-06T17:56:00.025Z,102217.84
2024-03-06T17:58:26.977Z,102217.81
2024-03-06T18:00:53.984Z,102221.53
2024-03-06T18:03:25.423Z,102218.91
2024-03-06T18:05:59.564Z,102222.78
2024-03-06T18:08:32.436Z,102223.88
2024-03-06T18:10:59.469Z,102226.91
2024-03-06T18:13:27.669Z,102224.44
2024-03-06T18:15:54.641Z,102234.47
2024-03-06T18:18:24.453Z,102234.94
2024-03-06T18:21:01.019Z,102236.44
2024-03-06T18:23:33.944Z,102236.56
2024-03-06T18:26:01.013Z,102235.44
2024-03-06T18:28:36.880Z,102237.91
2024-03-06T18:31:13.088Z,102245.50
2024-03-06T18:33:42.336Z,102244.75
2024-03-06T18:36:12.501Z,102243.50
2024-03-06T18:38:39.493Z,102246.47
2024-03-06T18:41:24.867Z,102247.41
2024-03-06T18:43:54.866Z,102257.13
2024-03-06T18:46:24.653Z,102255.50
2024-03-06T18:48:54.375Z,102260.06
2024-03-06T18:51:27.986Z,102261.72
2024-03-06T18:53:57.740Z,102259.59
2024-03-06T18:56:27.660Z,102265.94
2024-03-06T18:58:57.514Z,102270.34
2024-03-06T19:01:27.288Z,102261.47
2024-03-06T19:03:57.605Z,102267.59
2024-03-06T19:06:24.536Z,102273.50
2024-03-06T19:08:59.655Z,102281.41
2024-03-06T19:11:26.973Z,102275.56
2024-03-06T19:14:02.987Z,102271.94
2024-03-06T19:16:33.053Z,102278.56
2024-03-06T19:19:01.426Z,102277.13
2024-03-06T19:21:28.632Z,102273.72
2024-03-06T19:24:04.564Z,102269.34
2024-03-06T19:26:33.339Z,102281.28
2024-03-06T19:29:04.879Z,102279.94
2024-03-06T19:31:36.350Z,102282.19
2024-03-06T19:34:03.386Z,102284.69
2024-03-06T19:36:39.481Z,102288.56
2024-03-06T19:39:13.841Z,102288.22
2024-03-06T19:41:40.932Z,102281.59
2024-03-06T19:44:08.609Z,102281.72
2024-03-06T19:46:38.383Z,102292.81
2024-03-06T19:49:05.571Z,102285.16
2024-03-06T19:51:32.951Z,102291.03
2024-03-06T19:54:04.144Z,102291.50
2024-03-06T19:56:40.501Z,102296.63
2024-03-06T19:59:10.508Z,102295.91
2024-03-06T20:01:43.682Z,102296.59
2024-03-06T20:04:13.541Z,102289.22
2024-03-06T20:06:42.896Z,102298.25
2024-03-06T20:09:14.098Z,102306.53
2024-03-06T20:11:45.613Z,102300.53
2024-03-06T20:14:15.339Z,102299.13
2024-03-06T20:16:42.321Z,102298.50
2024-03-06T20:19:12.461Z,102309.09
2024-03-06T20:21:43.671Z,102300.13
2024-03-06T20:24:13.980Z,102298.53
2024-03-06T20:26:41.623Z,102304.44
2024-03-06T20:29:15.794Z,102301.16
2024-03-06T20:31:45.623Z,102293.94
2024-03-06T20:34:15.022Z,102297.03
2024-03-06T20:36:46.105Z,102299.47
2024-03-06T20:39:16.352Z,102297.63
2024-03-06T20:41:43.801Z,102296.16
2024-03-06T20:44:14.591Z,102288.38
2024-03-06T20:46:45.086Z,102289.81
2024-03-06T20:49:21.753Z,102292.00
2024-03-06T20:51:48.708Z,102301.09
2024-03-06T20:54:16.252Z,102288.69
2024-03-06T20:56:43.613Z,102291.03
2024-03-06T20:59:11.305Z,102286.91
2024-03-06T21:01:38.291Z,102291.56
2024-03-06T21:04:06.156Z,102297.78
2024-03-06T21:06:33.082Z,102292.22
2024-03-06T21:09:07.853Z,102293.25
2024-03-06T21:11:34.831Z,102295.19
2024-03-06T21:14:07.990Z,102289.22
2024-03-06T21:16:39.333Z,102288.78
2024-03-06T21:19:07.001Z,102287.72
2024-03-06T21:21:33.915Z,102286.34
2024-03-06T21:24:04.176Z,102286.78
2024-03-06T21:26:34.064Z,102282.41
2024-03-06T21:29:01.701Z,102290.22
2024-03-06T21:31:34.659Z,102292.00
2024-03-06T21:34:05.546Z,102293.47
2024-03-06T21:36:33.197Z,102299.88
2024-03-06T21:39:07.814Z,102297.19
2024-03-06T21:41:36.467Z,102295.25
2024-03-06T21:44:06.490Z,102302.66
2024-03-06T21:46:33.498Z,102296.72
2024-03-06T21:49:07.201Z,102302.28
2024-03-06T21:51:34.829Z,102292.00
2024-03-06T21:54:01.750Z,102295.56
2024-03-06T21:56:31.505Z,102300.31
2024-03-06T21:58:58.463Z,102297.97
2024-03-06T22:01:28.987Z,102296.78
2024-03-06T22:03:55.909Z,102295.19
2024-03-06T22:06:48.755Z,102300.81
2024-03-06T22:09:16.416Z,102295.19
2024-03-06T22:11:43.871Z,102293.28
2024-03-06T22:14:13.997Z,102299.66
2024-03-06T22:16:41.806Z,102300.00
2024-03-06T22:19:08.727Z,102298.78
2024-03-06T22:21:44.997Z,102303.19
2024-03-06T22:24:15.184Z,102307.59
2024-03-06T22:26:42.179Z,102307.19
2024-03-06T22:29:12.087Z,102307.59
2024-03-06T22:31:39.126Z,102307.66
2024-03-06T22:34:08.898Z,102300.94
2024-03-06T22:36:36.006Z,102314.41
2024-03-06T22:39:06.119Z,102312.06
2024-03-06T22:41:42.622Z,102310.47
2024-03-06T22:44:09.612Z,102312.88
2024-03-06T22:46:47.706Z,102307.75
2024-03-06T22:49:21.108Z,102319.63
2024-03-06T22:51:48.515Z,102312.97
2024-03-06T22:54:16.574Z,102312.59
2024-03-06T22:56:44.186Z,102314.53
2024-03-06T22:59:15.019Z,102319.38
2024-03-06T23:01:44.078Z,102314.97
2024-03-06T23:04:14.036Z,102319.38
2024-03-06T23:06:43.205Z,102316.97
2024-03-06T23:09:13.814Z,102318.59
2024-03-06T23:11:41.379Z,102318.97
2024-03-06T23:14:11.847Z,102317.41
2024-03-06T23:16:41.926Z,102316.28
2024-03-06T23:19:09.220Z,102309.53
2024-03-06T23:21:39.258Z,102309.16
2024-03-06T23:24:08.944Z,102307.97
2024-03-06T23:26:43.267Z,102319.84
2024-03-06T23:29:17.016Z,102321.88
2024-03-06T23:31:44.423Z,102322.31
2024-03-06T23:34:14.172Z,102319.16
2024-03-06T23:36:41.100Z,102316.81
2024-03-06T23:39:11.087Z,102320.38
2024-03-06T23:41:38.281Z,102322.75
2024-03-06T23:44:14.502Z,102318.03
2024-03-06T23:46:42.136Z,102324.41
2024-03-06T23:49:09.072Z,102320.47
2024-03-06T23:51:36.118Z,102317.34
2024-03-06T23:54:08.111Z,102315.78
2024-03-06T23:56:35.104Z,102313.84
2024-03-06T23:59:04.920Z,102312.59
